sensor_id;sensor_type;location;lat;lon;timestamp;pressure;altitude;pressure_sealevel;temperature;humidity
7105;BME280;3594;42.152;24.714;2023-03-04T00:01:00;-23909.69;;;3.35;nan
7105;BME280;3594;42.152;24.714;2023-03-04T00:03:26;-23916.41;;;3.59;nan
7105;BME280;3594;42.152;24.714;2023-03-04T00:05:51;-23916.41;;;3.59;nan
7105;BME280;3594;42.152;24.714;2023-03-04T00:08:16;-23910.41;;;3.37;nan
7105;BME280;3594;42.152;24.714;2023-03-04T00:10:42;-23912.41;;;3.44;nan
7105;BME280;3594;42.152;24.714;2023-03-04T00:13:08;-23896.72;;;2.89;nan
7105;BME280;3594;42.152;24.714;2023-03-04T00:15:33;-23916.13;;;3.58;nan
7105;BME280;3594;42.152;24.714;2023-03-04T00:17:58;-23913.25;;;3.47;nan
7105;BME280;3594;42.152;24.714;2023-03-04T00:20:24;-23916.97;;;3.61;nan
7105;BME280;3594;42.152;24.714;2023-03-04T00:22:49;-23916.97;;;3.61;nan
7105;BME280;3594;42.152;24.714;2023-03-04T00:25:14;-23904.28;;;3.16;nan
7105;BME280;3594;42.152;24.714;2023-03-04T00:27:40;-23908.56;;;3.31;nan
7105;BME280;3594;42.152;24.714;2023-03-04T00:30:06;-23907.72;;;3.28;nan
7105;BME280;3594;42.152;24.714;2023-03-04T00:32:32;-23904.84;;;3.18;nan
7105;BME280;3594;42.152;24.714;2023-03-04T00:34:57;-23897.28;;;2.91;nan
7105;BME280;3594;42.152;24.714;2023-03-04T00:37:23;-23899.00;;;2.97;nan
7105;BME280;3594;42.152;24.714;2023-03-04T00:39:48;-23903.56;;;3.13;nan
7105;BME280;3594;42.152;24.714;2023-03-04T00:42:14;-23906.28;;;3.23;nan
7105;BME280;3594;42.152;24.714;2023-03-04T00:44:39;-23905.41;;;3.20;nan
7105;BME280;3594;42.152;24.714;2023-03-04T00:47:05;-23895.88;;;2.86;nan
7105;BME280;3594;42.152;24.714;2023-03-04T00:49:30;-23903.00;;;3.11;nan
7105;BME280;3594;42.152;24.714;2023-03-04T00:51:56;-23901.56;;;3.06;nan
7105;BME280;3594;42.152;24.714;2023-03-04T00:54:21;-23898.72;;;2.96;nan
7105;BME280;3594;42.152;24.714;2023-03-04T00:56:47;-23903.44;;;3.13;nan
7105;BME280;3594;42.152;24.714;2023-03-04T00:59:12;-23901.56;;;3.06;nan
7105;BME280;3594;42.152;24.714;2023-03-04T01:01:37;-23903.44;;;3.13;nan
7105;BME280;3594;42.152;24.714;2023-03-04T01:04:03;-23901.72;;;3.06;nan
7105;BME280;3594;42.152;24.714;2023-03-04T01:06:28;-23896.88;;;2.89;nan
7105;BME280;3594;42.152;24.714;2023-03-04T01:08:54;-23898.28;;;2.94;nan
7105;BME280;3594;42.152;24.714;2023-03-04T01:11:19;-23891.16;;;2.69;nan
7105;BME280;3594;42.152;24.714;2023-03-04T01:13:45;-23894.00;;;2.79;nan
7105;BME280;3594;42.152;24.714;2023-03-04T01:16:10;-23897.72;;;2.92;nan
7105;BME280;3594;42.152;24.714;2023-03-04T01:18:37;-23899.56;;;2.99;nan
7105;BME280;3594;42.152;24.714;2023-03-04T01:21:03;-23896.28;;;2.87;nan
7105;BME280;3594;42.152;24.714;2023-03-04T01:23:29;-23897.88;;;2.93;nan
7105;BME280;3594;42.152;24.714;2023-03-04T01:25:54;-23908.00;;;3.29;nan
7105;BME280;3594;42.152;24.714;2023-03-04T01:28:19;-23905.56;;;3.20;nan
7105;BME280;3594;42.152;24.714;2023-03-04T01:30:45;-23911.69;;;3.42;nan
7105;BME280;3594;42.152;24.714;2023-03-04T01:33:10;-23903.56;;;3.13;nan
7105;BME280;3594;42.152;24.714;2023-03-04T01:35:36;-23908.00;;;3.29;nan
7105;BME280;3594;42.152;24.714;2023-03-04T01:38:01;-23910.69;;;3.38;nan
7105;BME280;3594;42.152;24.714;2023-03-04T01:40:27;-23909.84;;;3.35;nan
7105;BME280;3594;42.152;24.714;2023-03-04T01:42:52;-23901.72;;;3.06;nan
7105;BME280;3594;42.152;24.714;2023-03-04T01:45:18;-23909.56;;;3.34;nan
7105;BME280;3594;42.152;24.714;2023-03-04T01:47:46;-23913.97;;;3.50;nan
7105;BME280;3594;42.152;24.714;2023-03-04T01:50:27;-23913.56;;;3.48;nan
7105;BME280;3594;42.152;24.714;2023-03-04T01:52:54;-23913.13;;;3.47;nan
7105;BME280;3594;42.152;24.714;2023-03-04T01:55:21;-23915.53;;;3.55;nan
7105;BME280;3594;42.152;24.714;2023-03-04T01:57:48;-23908.84;;;3.32;nan
7105;BME280;3594;42.152;24.714;2023-03-04T02:00:33;-23916.53;;;3.59;nan
7105;BME280;3594;42.152;24.714;2023-03-04T02:03:10;-23905.72;;;3.21;nan
7105;BME280;3594;42.152;24.714;2023-03-04T02:05:41;-23908.72;;;3.31;nan
7105;BME280;3594;42.152;24.714;2023-03-04T02:08:08;-23907.56;;;3.27;nan
7105;BME280;3594;42.152;24.714;2023-03-04T02:10:34;-23917.69;;;3.63;nan
7105;BME280;3594;42.152;24.714;2023-03-04T02:13:00;-23917.41;;;3.62;nan
7105;BME280;3594;42.152;24.714;2023-03-04T02:15:26;-23922.09;;;3.79;nan
7105;BME280;3594;42.152;24.714;2023-03-04T02:17:52;-23918.69;;;3.67;nan
7105;BME280;3594;42.152;24.714;2023-03-04T02:20:34;-23912.25;;;3.44;nan
7105;BME280;3594;42.152;24.714;2023-03-04T02:23:10;-23904.00;;;3.15;nan
7105;BME280;3594;42.152;24.714;2023-03-04T02:25:52;-23911.69;;;3.42;nan
7105;BME280;3594;42.152;24.714;2023-03-04T02:28:19;-23896.16;;;2.87;nan
7105;BME280;3594;42.152;24.714;2023-03-04T02:30:45;-23899.88;;;3.00;nan
7105;BME280;3594;42.152;24.714;2023-03-04T02:33:16;-23908.72;;;3.31;nan
7105;BME280;3594;42.152;24.714;2023-03-04T02:35:41;-23909.00;;;3.32;nan
7105;BME280;3594;42.152;24.714;2023-03-04T02:38:09;-23911.56;;;3.41;nan
7105;BME280;3594;42.152;24.714;2023-03-04T02:40:35;-23903.00;;;3.11;nan
7105;BME280;3594;42.152;24.714;2023-03-04T02:43:01;-23902.56;;;3.09;nan
7105;BME280;3594;42.152;24.714;2023-03-04T02:45:47;-23899.44;;;2.98;nan
7105;BME280;3594;42.152;24.714;2023-03-04T02:48:15;-23886.59;;;2.53;nan
7105;BME280;3594;42.152;24.714;2023-03-04T02:50:44;-23896.00;;;2.86;nan
7105;BME280;3594;42.152;24.714;2023-03-04T02:53:10;-23891.59;;;2.71;nan
7105;BME280;3594;42.152;24.714;2023-03-04T02:55:36;-23881.59;;;2.35;nan
7105;BME280;3594;42.152;24.714;2023-03-04T02:58:02;-23889.31;;;2.62;nan
7105;BME280;3594;42.152;24.714;2023-03-04T03:00:27;-23889.16;;;2.62;nan
7105;BME280;3594;42.152;24.714;2023-03-04T03:02:53;-23886.44;;;2.52;nan
7105;BME280;3594;42.152;24.714;2023-03-04T03:05:22;-23888.59;;;2.60;nan
7105;BME280;3594;42.152;24.714;2023-03-04T03:07:48;-23887.44;;;2.56;nan
7105;BME280;3594;42.152;24.714;2023-03-04T03:10:14;-23892.72;;;2.75;nan
7105;BME280;3594;42.152;24.714;2023-03-04T03:12:39;-23883.03;;;2.40;nan
7105;BME280;3594;42.152;24.714;2023-03-04T03:15:05;-23837.56;;;0.79;nan
7105;BME280;3594;42.152;24.714;2023-03-04T03:17:31;-23890.00;;;2.65;nan
7105;BME280;3594;42.152;24.714;2023-03-04T03:19:56;-23890.00;;;2.65;nan
7105;BME280;3594;42.152;24.714;2023-03-04T03:22:22;-23889.31;;;2.62;nan
7105;BME280;3594;42.152;24.714;2023-03-04T03:24:47;-23890.16;;;2.65;nan
7105;BME280;3594;42.152;24.714;2023-03-04T03:27:12;-23863.59;;;1.71;nan
7105;BME280;3594;42.152;24.714;2023-03-04T03:29:38;-23893.00;;;2.76;nan
7105;BME280;3594;42.152;24.714;2023-03-04T03:32:03;-23881.59;;;2.35;nan
7105;BME280;3594;42.152;24.714;2023-03-04T03:34:29;-23891.00;;;2.68;nan
7105;BME280;3594;42.152;24.714;2023-03-04T03:36:54;-23883.16;;;2.41;nan
7105;BME280;3594;42.152;24.714;2023-03-04T03:39:20;-23885.16;;;2.48;nan
7105;BME280;3594;42.152;24.714;2023-03-04T03:41:46;-23872.31;;;2.02;nan
7105;BME280;3594;42.152;24.714;2023-03-04T03:44:12;-23882.59;;;2.39;nan
7105;BME280;3594;42.152;24.714;2023-03-04T03:46:37;-23871.19;;;1.98;nan
7105;BME280;3594;42.152;24.714;2023-03-04T03:49:02;-23884.59;;;2.46;nan
7105;BME280;3594;42.152;24.714;2023-03-04T03:51:28;-23876.88;;;2.18;nan
7105;BME280;3594;42.152;24.714;2023-03-04T03:53:53;-23886.75;;;2.53;nan
7105;BME280;3594;42.152;24.714;2023-03-04T03:56:18;-23891.00;;;2.68;nan
7105;BME280;3594;42.152;24.714;2023-03-04T03:58:44;-23894.31;;;2.80;nan
7105;BME280;3594;42.152;24.714;2023-03-04T04:01:09;-23878.75;;;2.25;nan
7105;BME280;3594;42.152;24.714;2023-03-04T04:03:35;-23879.59;;;2.28;nan
7105;BME280;3594;42.152;24.714;2023-03-04T04:06:00;-23874.75;;;2.11;nan
7105;BME280;3594;42.152;24.714;2023-03-04T04:08:26;-23884.44;;;2.45;nan
7105;BME280;3594;42.152;24.714;2023-03-04T04:10:51;-23876.16;;;2.16;nan
7105;BME280;3594;42.152;24.714;2023-03-04T04:13:17;-23886.44;;;2.52;nan
7105;BME280;3594;42.152;24.714;2023-03-04T04:15:42;-23878.16;;;2.23;nan
7105;BME280;3594;42.152;24.714;2023-03-04T04:18:08;-23875.88;;;2.15;nan
7105;BME280;3594;42.152;24.714;2023-03-04T04:20:34;-23875.88;;;2.15;nan
7105;BME280;3594;42.152;24.714;2023-03-04T04:23:00;-23886.44;;;2.52;nan
7105;BME280;3594;42.152;24.714;2023-03-04T04:25:26;-23885.88;;;2.50;nan
7105;BME280;3594;42.152;24.714;2023-03-04T04:27:51;-23883.16;;;2.41;nan
7105;BME280;3594;42.152;24.714;2023-03-04T04:30:17;-23881.47;;;2.35;nan
7105;BME280;3594;42.152;24.714;2023-03-04T04:32:43;-23878.75;;;2.25;nan
7105;BME280;3594;42.152;24.714;2023-03-04T04:35:08;-23888.88;;;2.61;nan
7105;BME280;3594;42.152;24.714;2023-03-04T04:37:34;-23891.72;;;2.71;nan
7105;BME280;3594;42.152;24.714;2023-03-04T04:39:59;-23892.44;;;2.74;nan
7105;BME280;3594;42.152;24.714;2023-03-04T04:42:26;-23889.31;;;2.62;nan
7105;BME280;3594;42.152;24.714;2023-03-04T04:44:51;-23880.16;;;2.30;nan
7105;BME280;3594;42.152;24.714;2023-03-04T04:47:17;-23891.31;;;2.70;nan
7105;BME280;3594;42.152;24.714;2023-03-04T04:49:43;-23882.16;;;2.37;nan
7105;BME280;3594;42.152;24.714;2023-03-04T04:52:09;-23897.88;;;2.93;nan
7105;BME280;3594;42.152;24.714;2023-03-04T04:54:35;-23891.72;;;2.71;nan
7105;BME280;3594;42.152;24.714;2023-03-04T04:57:00;-23894.88;;;2.82;nan
7105;BME280;3594;42.152;24.714;2023-03-04T04:59:25;-23885.31;;;2.48;nan
7105;BME280;3594;42.152;24.714;2023-03-04T05:01:51;-23872.03;;;2.01;nan
7105;BME280;3594;42.152;24.714;2023-03-04T05:04:16;-23868.75;;;1.90;nan
7105;BME280;3594;42.152;24.714;2023-03-04T05:06:42;-23874.16;;;2.09;nan
7105;BME280;3594;42.152;24.714;2023-03-04T05:09:07;-23838.88;;;0.84;nan
7105;BME280;3594;42.152;24.714;2023-03-04T05:11:33;-23874.75;;;2.11;nan
7105;BME280;3594;42.152;24.714;2023-03-04T05:13:58;-23868.88;;;1.90;nan
7105;BME280;3594;42.152;24.714;2023-03-04T05:16:23;-23871.03;;;1.98;nan
7105;BME280;3594;42.152;24.714;2023-03-04T05:18:49;-23881.59;;;2.35;nan
7105;BME280;3594;42.152;24.714;2023-03-04T05:21:14;-23871.03;;;1.98;nan
7105;BME280;3594;42.152;24.714;2023-03-04T05:23:41;-23867.88;;;1.87;nan
7105;BME280;3594;42.152;24.714;2023-03-04T05:26:10;-23877.47;;;2.20;nan
7105;BME280;3594;42.152;24.714;2023-03-04T05:28:36;-23866.47;;;1.82;nan
7105;BME280;3594;42.152;24.714;2023-03-04T05:31:02;-23860.88;;;1.62;nan
7105;BME280;3594;42.152;24.714;2023-03-04T05:33:27;-23866.03;;;1.80;nan
7105;BME280;3594;42.152;24.714;2023-03-04T05:35:52;-23859.47;;;1.57;nan
7105;BME280;3594;42.152;24.714;2023-03-04T05:38:20;-23854.75;;;1.40;nan
7105;BME280;3594;42.152;24.714;2023-03-04T05:40:46;-23866.31;;;1.81;nan
7105;BME280;3594;42.152;24.714;2023-03-04T05:43:12;-23875.31;;;2.13;nan
7105;BME280;3594;42.152;24.714;2023-03-04T05:45:38;-23873.59;;;2.07;nan
7105;BME280;3594;42.152;24.714;2023-03-04T05:48:05;-23873.59;;;2.07;nan
7105;BME280;3594;42.152;24.714;2023-03-04T05:50:30;-23886.59;;;2.53;nan
7105;BME280;3594;42.152;24.714;2023-03-04T05:52:56;-23884.31;;;2.45;nan
7105;BME280;3594;42.152;24.714;2023-03-04T05:55:21;-23886.16;;;2.51;nan
7105;BME280;3594;42.152;24.714;2023-03-04T05:57:47;-23888.31;;;2.59;nan
7105;BME280;3594;42.152;24.714;2023-03-04T06:00:14;-23885.59;;;2.49;nan
7105;BME280;3594;42.152;24.714;2023-03-04T06:02:40;-23892.03;;;2.72;nan
7105;BME280;3594;42.152;24.714;2023-03-04T06:05:07;-23904.28;;;3.16;nan
7105;BME280;3594;42.152;24.714;2023-03-04T06:07:33;-23898.59;;;2.95;nan
7105;BME280;3594;42.152;24.714;2023-03-04T06:09:59;-23893.72;;;2.78;nan
7105;BME280;3594;42.152;24.714;2023-03-04T06:12:24;-23900.00;;;3.00;nan
7105;BME280;3594;42.152;24.714;2023-03-04T06:14:49;-23899.00;;;2.97;nan
7105;BME280;3594;42.152;24.714;2023-03-04T06:17:15;-23902.00;;;3.07;nan
7105;BME280;3594;42.152;24.714;2023-03-04T06:19:41;-23902.72;;;3.10;nan
7105;BME280;3594;42.152;24.714;2023-03-04T06:22:07;-23898.88;;;2.96;nan
7105;BME280;3594;42.152;24.714;2023-03-04T06:24:33;-23887.88;;;2.57;nan
7105;BME280;3594;42.152;24.714;2023-03-04T06:26:59;-23904.13;;;3.15;nan
7105;BME280;3594;42.152;24.714;2023-03-04T06:29:25;-23905.00;;;3.18;nan
7105;BME280;3594;42.152;24.714;2023-03-04T06:31:51;-23898.28;;;2.94;nan
7105;BME280;3594;42.152;24.714;2023-03-04T06:34:16;-23897.72;;;2.92;nan
7105;BME280;3594;42.152;24.714;2023-03-04T06:36:42;-23904.72;;;3.17;nan
7105;BME280;3594;42.152;24.714;2023-03-04T06:39:07;-23910.97;;;3.39;nan
7105;BME280;3594;42.152;24.714;2023-03-04T06:41:33;-23911.84;;;3.42;nan
7105;BME280;3594;42.152;24.714;2023-03-04T06:43:58;-23915.25;;;3.54;nan
7105;BME280;3594;42.152;24.714;2023-03-04T06:46:24;-23912.41;;;3.44;nan
7105;BME280;3594;42.152;24.714;2023-03-04T06:48:49;-23914.53;;;3.52;nan
7105;BME280;3594;42.152;24.714;2023-03-04T06:51:15;-23922.97;;;3.82;nan
7105;BME280;3594;42.152;24.714;2023-03-04T06:53:41;-23924.09;;;3.86;nan
7105;BME280;3594;42.152;24.714;2023-03-04T06:56:09;-23933.22;;;4.18;nan
7105;BME280;3594;42.152;24.714;2023-03-04T06:58:36;-23942.47;;;4.51;nan
7105;BME280;3594;42.152;24.714;2023-03-04T07:01:21;-23939.19;;;4.39;nan
7105;BME280;3594;42.152;24.714;2023-03-04T07:03:48;-23948.31;;;4.72;nan
7105;BME280;3594;42.152;24.714;2023-03-04T07:06:16;-23961.09;;;5.17;nan
7105;BME280;3594;42.152;24.714;2023-03-04T07:08:42;-23967.38;;;5.40;nan
7105;BME280;3594;42.152;24.714;2023-03-04T07:11:08;-23972.47;;;5.58;nan
7105;BME280;3594;42.152;24.714;2023-03-04T07:13:34;-23972.06;;;5.56;nan
7105;BME280;3594;42.152;24.714;2023-03-04T07:16:03;-23978.44;;;5.79;nan
7105;BME280;3594;42.152;24.714;2023-03-04T07:18:29;-23973.91;;;5.63;nan
7105;BME280;3594;42.152;24.714;2023-03-04T07:20:54;-23974.75;;;5.66;nan
7105;BME280;3594;42.152;24.714;2023-03-04T07:23:19;-23980.72;;;5.87;nan
7105;BME280;3594;42.152;24.714;2023-03-04T07:25:45;-23983.84;;;5.98;nan
7105;BME280;3594;42.152;24.714;2023-03-04T07:28:12;-23977.44;;;5.75;nan
7105;BME280;3594;42.152;24.714;2023-03-04T07:30:38;-23987.81;;;6.12;nan
7105;BME280;3594;42.152;24.714;2023-03-04T07:33:03;-23981.72;;;5.91;nan
7105;BME280;3594;42.152;24.714;2023-03-04T07:35:28;-23990.66;;;6.22;nan
7105;BME280;3594;42.152;24.714;2023-03-04T07:37:54;-23993.22;;;6.32;nan
7105;BME280;3594;42.152;24.714;2023-03-04T07:40:20;-23993.09;;;6.31;nan
7105;BME280;3594;42.152;24.714;2023-03-04T07:42:53;-23993.38;;;6.32;nan
7105;BME280;3594;42.152;24.714;2023-03-04T07:45:19;-23995.06;;;6.38;nan
7105;BME280;3594;42.152;24.714;2023-03-04T07:47:44;-24000.75;;;6.58;nan
7105;BME280;3594;42.152;24.714;2023-03-04T07:50:10;-23991.94;;;6.27;nan
7105;BME280;3594;42.152;24.714;2023-03-04T07:52:41;-23998.34;;;6.50;nan
7105;BME280;3594;42.152;24.714;2023-03-04T07:55:08;-23994.66;;;6.37;nan
7105;BME280;3594;42.152;24.714;2023-03-04T07:57:33;-23995.50;;;6.40;nan
7105;BME280;3594;42.152;24.714;2023-03-04T07:59:59;-23998.47;;;6.50;nan
7105;BME280;3594;42.152;24.714;2023-03-04T08:02:24;-23997.47;;;6.47;nan
7105;BME280;3594;42.152;24.714;2023-03-04T08:04:50;-23998.75;;;6.51;nan
7105;BME280;3594;42.152;24.714;2023-03-04T08:07:15;-23984.28;;;6.00;nan
7105;BME280;3594;42.152;24.714;2023-03-04T08:09:41;-23999.91;;;6.55;nan
7105;BME280;3594;42.152;24.714;2023-03-04T08:12:06;-23993.22;;;6.32;nan
7105;BME280;3594;42.152;24.714;2023-03-04T08:14:32;-23996.22;;;6.42;nan
7105;BME280;3594;42.152;24.714;2023-03-04T08:16:58;-23995.22;;;6.39;nan
7105;BME280;3594;42.152;24.714;2023-03-04T08:19:23;-23997.19;;;6.46;nan
7105;BME280;3594;42.152;24.714;2023-03-04T08:21:49;-23991.66;;;6.26;nan
7105;BME280;3594;42.152;24.714;2023-03-04T08:24:14;-23999.47;;;6.54;nan
7105;BME280;3594;42.152;24.714;2023-03-04T08:26:43;-24001.47;;;6.61;nan
7105;BME280;3594;42.152;24.714;2023-03-04T08:29:12;-24009.41;;;6.89;nan
7105;BME280;3594;42.152;24.714;2023-03-04T08:31:38;-24014.38;;;7.07;nan
7105;BME280;3594;42.152;24.714;2023-03-04T08:34:04;-24017.91;;;7.20;nan
7105;BME280;3594;42.152;24.714;2023-03-04T08:36:29;-24010.53;;;6.93;nan
7105;BME280;3594;42.152;24.714;2023-03-04T08:38:55;-24020.75;;;7.30;nan
7105;BME280;3594;42.152;24.714;2023-03-04T08:41:20;-24019.03;;;7.24;nan
7105;BME280;3594;42.152;24.714;2023-03-04T08:43:46;-24034.91;;;7.80;nan
7105;BME280;3594;42.152;24.714;2023-03-04T08:46:12;-24027.13;;;7.52;nan
7105;BME280;3594;42.152;24.714;2023-03-04T08:48:37;-24022.44;;;7.36;nan
7105;BME280;3594;42.152;24.714;2023-03-04T08:51:10;-24027.41;;;7.53;nan
7105;BME280;3594;42.152;24.714;2023-03-04T08:53:37;-24034.06;;;7.77;nan
7105;BME280;3594;42.152;24.714;2023-03-04T08:56:03;-24028.41;;;7.57;nan
7105;BME280;3594;42.152;24.714;2023-03-04T08:58:29;-24040.16;;;7.99;nan
7105;BME280;3594;42.152;24.714;2023-03-04T09:00:54;-24033.66;;;7.76;nan
7105;BME280;3594;42.152;24.714;2023-03-04T09:03:19;-24039.16;;;7.95;nan
7105;BME280;3594;42.152;24.714;2023-03-04T09:05:46;-24042.00;;;8.06;nan
7105;BME280;3594;42.152;24.714;2023-03-04T09:08:13;-24046.41;;;8.21;nan
7105;BME280;3594;42.152;24.714;2023-03-04T09:10:39;-24053.63;;;8.47;nan
7105;BME280;3594;42.152;24.714;2023-03-04T09:13:04;-24058.84;;;8.66;nan
7105;BME280;3594;42.152;24.714;2023-03-04T09:15:31;-24065.78;;;8.91;nan
7105;BME280;3594;42.152;24.714;2023-03-04T09:18:01;-24055.31;;;8.53;nan
7105;BME280;3594;42.152;24.714;2023-03-04T09:20:28;-24063.53;;;8.82;nan
7105;BME280;3594;42.152;24.714;2023-03-04T09:22:53;-24070.16;;;9.06;nan
7105;BME280;3594;42.152;24.714;2023-03-04T09:25:19;-24070.72;;;9.08;nan
7105;BME280;3594;42.152;24.714;2023-03-04T09:27:44;-24080.50;;;9.43;nan
7105;BME280;3594;42.152;24.714;2023-03-04T09:30:10;-24081.47;;;9.47;nan
7105;BME280;3594;42.152;24.714;2023-03-04T09:32:36;-24092.91;;;9.88;nan
7105;BME280;3594;42.152;24.714;2023-03-04T09:35:01;-24092.22;;;9.85;nan
7105;BME280;3594;42.152;24.714;2023-03-04T09:37:27;-24087.97;;;9.70;nan
7105;BME280;3594;42.152;24.714;2023-03-04T09:39:52;-24096.03;;;9.99;nan
7105;BME280;3594;42.152;24.714;2023-03-04T09:42:36;-24107.31;;;10.39;nan
7105;BME280;3594;42.152;24.714;2023-03-04T09:45:04;-24112.25;;;10.57;nan
7105;BME280;3594;42.152;24.714;2023-03-04T09:47:33;-24116.06;;;10.71;nan
7105;BME280;3594;42.152;24.714;2023-03-04T09:50:03;-24124.13;;;10.99;nan
7105;BME280;3594;42.152;24.714;2023-03-04T09:55:24;-24127.50;;;11.12;nan
7105;BME280;3594;42.152;24.714;2023-03-04T10:08:29;-24132.00;;;11.28;nan
7105;BME280;3594;42.152;24.714;2023-03-04T10:10:58;-24124.25;;;11.00;nan
7105;BME280;3594;42.152;24.714;2023-03-04T10:16:21;-24120.59;;;10.87;nan
7105;BME280;3594;42.152;24.714;2023-03-04T10:19:02;-24123.97;;;10.99;nan
7105;BME280;3594;42.152;24.714;2023-03-04T10:21:41;-24119.19;;;10.82;nan
7105;BME280;3594;42.152;24.714;2023-03-04T10:24:14;-24109.88;;;10.48;nan
7105;BME280;3594;42.152;24.714;2023-03-04T10:26:44;-24109.31;;;10.46;nan
7105;BME280;3594;42.152;24.714;2023-03-04T10:29:18;-24123.00;;;10.95;nan
7105;BME280;3594;42.152;24.714;2023-03-04T10:31:45;-24114.53;;;10.65;nan
7105;BME280;3594;42.152;24.714;2023-03-04T10:34:12;-24119.75;;;10.84;nan
7105;BME280;3594;42.152;24.714;2023-03-04T10:39:23;-24104.94;;;10.31;nan
7105;BME280;3594;42.152;24.714;2023-03-04T10:42:40;-24097.88;;;10.05;nan
7105;BME280;3594;42.152;24.714;2023-03-04T10:44:43;-24106.19;;;10.35;nan
7105;BME280;3594;42.152;24.714;2023-03-04T10:47:10;-24114.53;;;10.65;nan
7105;BME280;3594;42.152;24.714;2023-03-04T10:49:58;-24116.22;;;10.71;nan
7105;BME280;3594;42.152;24.714;2023-03-04T10:55:02;-24100.53;;;10.15;nan
7105;BME280;3594;42.152;24.714;2023-03-04T11:02:47;-24123.00;;;10.95;nan
7105;BME280;3594;42.152;24.714;2023-03-04T11:05:21;-24126.94;;;11.10;nan
7105;BME280;3594;42.152;24.714;2023-03-04T11:07:54;-24122.41;;;10.93;nan
7105;BME280;3594;42.152;24.714;2023-03-04T11:15:24;-24140.75;;;11.59;nan
7105;BME280;3594;42.152;24.714;2023-03-04T11:18:09;-24144.41;;;11.72;nan
7105;BME280;3594;42.152;24.714;2023-03-04T11:20:40;-24143.00;;;11.67;nan
7105;BME280;3594;42.152;24.714;2023-03-04T11:23:45;-24148.06;;;11.85;nan
7105;BME280;3594;42.152;24.714;2023-03-04T11:26:19;-24146.38;;;11.79;nan
7105;BME280;3594;42.152;24.714;2023-03-04T11:29:10;-24132.28;;;11.29;nan
7105;BME280;3594;42.152;24.714;2023-03-04T11:34:33;-24118.63;;;10.80;nan
7105;BME280;3594;42.152;24.714;2023-03-04T11:39:57;-24154.69;;;12.09;nan
7105;BME280;3594;42.152;24.714;2023-03-04T11:42:54;-24157.91;;;12.21;nan
7105;BME280;3594;42.152;24.714;2023-03-04T11:45:30;-24147.66;;;11.84;nan
7105;BME280;3594;42.152;24.714;2023-03-04T11:48:08;-24145.13;;;11.75;nan
7105;BME280;3594;42.152;24.714;2023-03-04T11:50:52;-24130.75;;;11.23;nan
7105;BME280;3594;42.152;24.714;2023-03-04T11:56:08;-24112.81;;;10.59;nan
7105;BME280;3594;42.152;24.714;2023-03-04T12:12:15;-24135.66;;;11.41;nan
7105;BME280;3594;42.152;24.714;2023-03-04T12:15:07;-24137.50;;;11.47;nan
7105;BME280;3594;42.152;24.714;2023-03-04T12:17:46;-24132.56;;;11.30;nan
7105;BME280;3594;42.152;24.714;2023-03-04T12:25:36;-24123.84;;;10.98;nan
7105;BME280;3594;42.152;24.714;2023-03-04T12:31:37;-24133.84;;;11.34;nan
7105;BME280;3594;42.152;24.714;2023-03-04T12:41:21;-24159.19;;;12.25;nan
7105;BME280;3594;42.152;24.714;2023-03-04T12:46:43;-24167.91;;;12.57;nan
7105;BME280;3594;42.152;24.714;2023-03-04T12:49:46;-24179.59;;;12.99;nan
7105;BME280;3594;42.152;24.714;2023-03-04T12:55:16;-24161.59;;;12.34;nan
7105;BME280;3594;42.152;24.714;2023-03-04T12:57:44;-24162.44;;;12.37;nan
7105;BME280;3594;42.152;24.714;2023-03-04T13:00:30;-24166.22;;;12.51;nan
7105;BME280;3594;42.152;24.714;2023-03-04T13:03:17;-24182.53;;;13.09;nan
7105;BME280;3594;42.152;24.714;2023-03-04T13:06:05;-24162.16;;;12.36;nan
7105;BME280;3594;42.152;24.714;2023-03-04T13:16:51;-24188.88;;;13.32;nan
7105;BME280;3594;42.152;24.714;2023-03-04T13:19:43;-24182.41;;;13.09;nan
7105;BME280;3594;42.152;24.714;2023-03-04T13:25:29;-24181.28;;;13.05;nan
7105;BME280;3594;42.152;24.714;2023-03-04T13:30:42;-24176.06;;;12.86;nan
7105;BME280;3594;42.152;24.714;2023-03-04T13:42:02;-24174.09;;;12.79;nan
7105;BME280;3594;42.152;24.714;2023-03-04T13:47:17;-24149.47;;;11.90;nan
7105;BME280;3594;42.152;24.714;2023-03-04T13:49:44;-24159.19;;;12.25;nan
7105;BME280;3594;42.152;24.714;2023-03-04T13:52:41;-24159.19;;;12.25;nan
7105;BME280;3594;42.152;24.714;2023-03-04T13:55:39;-24148.91;;;11.88;nan
7105;BME280;3594;42.152;24.714;2023-03-04T13:58:16;-24143.28;;;11.68;nan
7105;BME280;3594;42.152;24.714;2023-03-04T14:00:52;-24146.09;;;11.78;nan
7105;BME280;3594;42.152;24.714;2023-03-04T14:03:21;-24146.81;;;11.81;nan
7105;BME280;3594;42.152;24.714;2023-03-04T14:05:47;-24146.25;;;11.79;nan
7105;BME280;3594;42.152;24.714;2023-03-04T14:08:17;-24138.63;;;11.51;nan
7105;BME280;3594;42.152;24.714;2023-03-04T14:10:43;-24133.56;;;11.33;nan
7105;BME280;3594;42.152;24.714;2023-03-04T14:13:09;-24136.94;;;11.45;nan
7105;BME280;3594;42.152;24.714;2023-03-04T14:15:35;-24138.50;;;11.51;nan
7105;BME280;3594;42.152;24.714;2023-03-04T14:18:03;-24136.09;;;11.42;nan
7105;BME280;3594;42.152;24.714;2023-03-04T14:20:35;-24133.84;;;11.34;nan
7105;BME280;3594;42.152;24.714;2023-03-04T14:23:28;-24136.38;;;11.43;nan
7105;BME280;3594;42.152;24.714;2023-03-04T14:26:16;-24141.44;;;11.62;nan
7105;BME280;3594;42.152;24.714;2023-03-04T14:28:50;-24137.94;;;11.49;nan
7105;BME280;3594;42.152;24.714;2023-03-04T14:31:21;-24131.03;;;11.24;nan
7105;BME280;3594;42.152;24.714;2023-03-04T14:33:51;-24127.91;;;11.13;nan
7105;BME280;3594;42.152;24.714;2023-03-04T14:36:21;-24138.22;;;11.50;nan
7105;BME280;3594;42.152;24.714;2023-03-04T14:38:54;-24132.00;;;11.28;nan
7105;BME280;3594;42.152;24.714;2023-03-04T14:41:26;-24125.66;;;11.05;nan
7105;BME280;3594;42.152;24.714;2023-03-04T14:46:23;-24133.13;;;11.32;nan
7105;BME280;3594;42.152;24.714;2023-03-04T14:48:52;-24123.41;;;10.97;nan
7105;BME280;3594;42.152;24.714;2023-03-04T14:51:46;-24131.44;;;11.26;nan
7105;BME280;3594;42.152;24.714;2023-03-04T14:54:44;-24131.31;;;11.25;nan
7105;BME280;3594;42.152;24.714;2023-03-04T14:57:30;-24130.88;;;11.24;nan
7105;BME280;3594;42.152;24.714;2023-03-04T15:00:23;-24118.34;;;10.79;nan
7105;BME280;3594;42.152;24.714;2023-03-04T15:03:14;-24119.31;;;10.82;nan
7105;BME280;3594;42.152;24.714;2023-03-04T15:05:41;-24122.41;;;10.93;nan
7105;BME280;3594;42.152;24.714;2023-03-04T15:08:34;-24126.09;;;11.06;nan
7105;BME280;3594;42.152;24.714;2023-03-04T15:11:03;-24122.56;;;10.94;nan
7105;BME280;3594;42.152;24.714;2023-03-04T15:16:02;-24114.66;;;10.66;nan
7105;BME280;3594;42.152;24.714;2023-03-04T15:18:28;-24104.50;;;10.29;nan
7105;BME280;3594;42.152;24.714;2023-03-04T15:20:59;-24113.25;;;10.60;nan
7105;BME280;3594;42.152;24.714;2023-03-04T15:23:28;-24111.13;;;10.53;nan
7105;BME280;3594;42.152;24.714;2023-03-04T15:25:56;-24113.25;;;10.60;nan